DLH78D EDDH-LFMN
Flight info
| Callsign | DLH78D |
|---|---|
| Flight time | N/A |
| Altitude | 33000 |
| Route | IDEKO7G/33 IDEKO N850 ROBEG/N0459F350 N850 XAROL/N0458F340 DCT BOMBI DCT GIGET DCT ABUKA DCT KRH DCT NATOR/N0460F350 DCT TRA DCT RIPUS DCT GERSA DCT SOSON DCT ODINA DCT ENOBA Z185 BORDI |
| Aircraft | B739/M-SDE2E3FGHIRWXY/LB1 |
Departure
| Time | 2026-05-07 21:08 |
|---|---|
| Airport | Hamburg Helmut Schmidt Airport (EDDH) |
Arrival
| Time | N/A |
|---|---|
| Airport | Nice-Côte d'Azur Airport (LFMN) |
| Time | Latitude | Longitude | Altitude | Speed | Heading |
|---|---|---|---|---|---|
| 2026-05-07 20:38 | 53.63450 | 10.00308 | 47 ft | 0 kts | 86° |
| 2026-05-07 20:56 | 53.63450 | 10.00284 | 47 ft | 4 kts | 74° |
| 2026-05-07 20:57 | 53.63449 | 10.00280 | 47 ft | 0 kts | 66° |
| 2026-05-07 20:57 | 53.63449 | 10.00276 | 47 ft | 4 kts | 62° |
| 2026-05-07 20:58 | 53.63448 | 10.00260 | 45 ft | 4 kts | 94° |
| 2026-05-07 20:58 | 53.63457 | 10.00225 | 45 ft | 4 kts | 153° |
| 2026-05-07 20:58 | 53.63482 | 10.00214 | 47 ft | 4 kts | 176° |
| 2026-05-07 20:58 | 53.63491 | 10.00213 | 47 ft | 1 kts | 175° |
| 2026-05-07 21:02 | 53.63489 | 10.00214 | 47 ft | 1 kts | 175° |
| 2026-05-07 21:02 | 53.63466 | 10.00214 | 47 ft | 5 kts | 191° |
| 2026-05-07 21:02 | 53.63447 | 10.00156 | 47 ft | 8 kts | 249° |
| 2026-05-07 21:02 | 53.63418 | 10.00045 | 47 ft | 13 kts | 237° |
| 2026-05-07 21:03 | 53.63355 | 9.99914 | 47 ft | 15 kts | 230° |
| 2026-05-07 21:03 | 53.63288 | 9.99781 | 47 ft | 15 kts | 226° |
| 2026-05-07 21:03 | 53.63197 | 9.99783 | 47 ft | 14 kts | 153° |
| 2026-05-07 21:03 | 53.63112 | 9.99857 | 47 ft | 13 kts | 153° |
| 2026-05-07 21:04 | 53.63032 | 9.99927 | 47 ft | 13 kts | 152° |
| 2026-05-07 21:04 | 53.62951 | 9.99997 | 45 ft | 4 kts | 160° |
| 2026-05-07 21:04 | 53.62931 | 9.99994 | 47 ft | 3 kts | 197° |
| 2026-05-07 21:04 | 53.62915 | 9.99973 | 46 ft | 3 kts | 230° |
| 2026-05-07 21:05 | 53.62904 | 9.99940 | 47 ft | 4 kts | 242° |
| 2026-05-07 21:05 | 53.62897 | 9.99919 | 47 ft | 0 kts | 242° |
| 2026-05-07 21:06 | 53.62897 | 9.99917 | 47 ft | 1 kts | 242° |
| 2026-05-07 21:06 | 53.62890 | 9.99895 | 44 ft | 5 kts | 242° |
| 2026-05-07 21:06 | 53.62860 | 9.99770 | 44 ft | 15 kts | 276° |
| 2026-05-07 21:06 | 53.62884 | 9.99728 | 44 ft | 0 kts | 335° |
| 2026-05-07 21:07 | 53.63018 | 9.99615 | 44 ft | 54 kts | 333° |
| 2026-05-07 21:07 | 53.63554 | 9.99152 | 46 ft | 117 kts | 333° |
| 2026-05-07 21:08 | 53.64429 | 9.98406 | 87 ft | 158 kts | 336° |
| 2026-05-07 21:08 | 53.65464 | 9.97592 | 515 ft | 166 kts | 338° |
| 2026-05-07 21:08 | 53.66560 | 9.96741 | 906 ft | 180 kts | 338° |
| 2026-05-07 21:08 | 53.67733 | 9.95729 | 1228 ft | 202 kts | 334° |
| 2026-05-07 21:09 | 53.69035 | 9.94556 | 1459 ft | 223 kts | 334° |
| 2026-05-07 21:09 | 53.70448 | 9.93220 | 1753 ft | 238 kts | 324° |
| 2026-05-07 21:09 | 53.71394 | 9.91037 | 2556 ft | 232 kts | 285° |
| 2026-05-07 21:09 | 53.71383 | 9.88238 | 2836 ft | 253 kts | 250° |
| 2026-05-07 21:10 | 53.70765 | 9.85417 | 3347 ft | 264 kts | 248° |
| 2026-05-07 21:10 | 53.70140 | 9.82474 | 4102 ft | 267 kts | 249° |
| 2026-05-07 21:10 | 53.69527 | 9.79494 | 4897 ft | 270 kts | 250° |
| 2026-05-07 21:10 | 53.68917 | 9.76474 | 5634 ft | 274 kts | 251° |
| 2026-05-07 21:11 | 53.68306 | 9.73399 | 6358 ft | 278 kts | 251° |
| 2026-05-07 21:11 | 53.67692 | 9.70283 | 7067 ft | 281 kts | 251° |
| 2026-05-07 21:11 | 53.66447 | 9.63985 | 8509 ft | 285 kts | 251° |
| 2026-05-07 21:12 | 53.65733 | 9.60834 | 9143 ft | 290 kts | 238° |
| 2026-05-07 21:12 | 53.64352 | 9.58454 | 9996 ft | 284 kts | 209° |
| 2026-05-07 21:12 | 53.62502 | 9.57293 | 10550 ft | 291 kts | 190° |
| 2026-05-07 21:12 | 53.60425 | 9.56793 | 10722 ft | 312 kts | 186° |
| 2026-05-07 21:13 | 53.58195 | 9.56394 | 10885 ft | 332 kts | 185° |
| 2026-05-07 21:13 | 53.55861 | 9.55994 | 11036 ft | 351 kts | 186° |
| 2026-05-07 21:13 | 53.53362 | 9.55550 | 11179 ft | 369 kts | 186° |
| 2026-05-07 21:13 | 53.50752 | 9.55064 | 11445 ft | 382 kts | 186° |
| 2026-05-07 21:14 | 53.48086 | 9.54552 | 11938 ft | 386 kts | 186° |
| 2026-05-07 21:14 | 53.45410 | 9.54029 | 12552 ft | 388 kts | 187° |
| 2026-05-07 21:14 | 53.42716 | 9.53499 | 13142 ft | 391 kts | 187° |
| 2026-05-07 21:14 | 53.39996 | 9.52963 | 13759 ft | 394 kts | 187° |
| 2026-05-07 21:15 | 53.37250 | 9.52422 | 14335 ft | 398 kts | 187° |
| 2026-05-07 21:15 | 53.34489 | 9.51880 | 14881 ft | 401 kts | 187° |
| 2026-05-07 21:15 | 53.31741 | 9.51342 | 15452 ft | 404 kts | 187° |
| 2026-05-07 21:15 | 53.28931 | 9.50790 | 16037 ft | 406 kts | 187° |
| 2026-05-07 21:16 | 53.26102 | 9.50233 | 16606 ft | 409 kts | 187° |
| 2026-05-07 21:16 | 53.23258 | 9.49673 | 17163 ft | 412 kts | 187° |
| 2026-05-07 21:16 | 53.20394 | 9.49094 | 17711 ft | 415 kts | 188° |
| 2026-05-07 21:16 | 53.17556 | 9.48454 | 18242 ft | 418 kts | 188° |
| 2026-05-07 21:17 | 53.14663 | 9.47767 | 18725 ft | 422 kts | 189° |
| 2026-05-07 21:17 | 53.11742 | 9.47063 | 19178 ft | 424 kts | 189° |
| 2026-05-07 21:17 | 53.08801 | 9.46356 | 19663 ft | 427 kts | 189° |
| 2026-05-07 21:17 | 53.05854 | 9.45654 | 20128 ft | 430 kts | 189° |
| 2026-05-07 21:18 | 53.02878 | 9.44950 | 20593 ft | 433 kts | 188° |
| 2026-05-07 21:18 | 52.99889 | 9.44248 | 21058 ft | 435 kts | 188° |
| 2026-05-07 21:18 | 52.96877 | 9.43544 | 21495 ft | 438 kts | 188° |
| 2026-05-07 21:18 | 52.93839 | 9.42836 | 21932 ft | 441 kts | 188° |
| 2026-05-07 21:19 | 52.90790 | 9.42128 | 22369 ft | 444 kts | 188° |
| 2026-05-07 21:19 | 52.87722 | 9.41417 | 22788 ft | 446 kts | 189° |
| 2026-05-07 21:19 | 52.84633 | 9.40702 | 23134 ft | 450 kts | 189° |
| 2026-05-07 21:19 | 52.81555 | 9.39989 | 23114 ft | 453 kts | 189° |
| 2026-05-07 21:20 | 52.78434 | 9.39268 | 23132 ft | 451 kts | 189° |
| 2026-05-07 21:20 | 52.75331 | 9.38553 | 23121 ft | 448 kts | 189° |